createdAt,value
2017-11-05T00:01:19.538Z,100176.95
2017-11-05T00:03:21.206Z,100185.66
2017-11-05T00:05:22.742Z,100177.56
2017-11-05T00:07:24.096Z,100182.91
2017-11-05T00:09:25.741Z,100182.02
2017-11-05T00:11:28.230Z,100180.72
2017-11-05T00:13:29.885Z,100175.66
2017-11-05T00:15:31.439Z,100179.02
2017-11-05T00:17:33.179Z,100195.19
2017-11-05T00:19:34.621Z,100187.80
2017-11-05T00:21:36.085Z,100195.14
2017-11-05T00:23:37.738Z,100194.78
2017-11-05T00:25:39.283Z,100189.37
2017-11-05T00:27:40.830Z,100183.80
2017-11-05T00:29:42.474Z,100190.40
2017-11-05T00:31:44.037Z,100182.59
2017-11-05T00:33:45.699Z,100189.23
2017-11-05T00:35:47.354Z,100175.80
2017-11-05T00:37:49.021Z,100180.86
2017-11-05T00:39:50.542Z,100180.03
2017-11-05T00:41:51.859Z,100178.40
2017-11-05T00:43:53.342Z,100179.05
2017-11-05T00:45:54.991Z,100170.07
2017-11-05T00:47:56.391Z,100179.73
2017-11-05T00:49:59.536Z,100184.47
2017-11-05T00:52:02.079Z,100179.11
2017-11-05T00:54:03.571Z,100177.20
2017-11-05T00:56:05.100Z,100190.50
2017-11-05T00:58:06.666Z,100188.22
2017-11-05T01:00:08.197Z,100179.33
2017-11-05T01:02:09.872Z,100176.16
2017-11-05T01:04:11.395Z,100185.02
2017-11-05T01:06:12.626Z,100184.59
2017-11-05T01:08:13.913Z,100189.31
2017-11-05T01:10:15.846Z,100194.77
2017-11-05T01:12:17.285Z,100181.84
2017-11-05T01:14:18.954Z,100181.24
2017-11-05T01:16:20.519Z,100189.33
2017-11-05T01:18:22.165Z,100187.88
2017-11-05T01:20:23.698Z,100183.72
2017-11-05T01:22:25.074Z,100177.53
2017-11-05T01:24:26.591Z,100168.00
2017-11-05T01:26:28.258Z,100173.91
2017-11-05T01:28:29.921Z,100170.34
2017-11-05T01:30:31.574Z,100185.41
2017-11-05T01:32:33.223Z,100173.50
2017-11-05T01:34:34.883Z,100165.79
2017-11-05T01:36:36.514Z,100166.91
2017-11-05T01:38:38.185Z,100171.23
2017-11-05T01:40:39.841Z,100170.73
2017-11-05T01:42:41.105Z,100175.19
2017-11-05T01:44:42.626Z,100169.79
2017-11-05T01:46:44.279Z,100164.44
2017-11-05T01:48:45.937Z,100168.83
2017-11-05T01:50:48.395Z,100174.04
2017-11-05T01:52:49.827Z,100165.95
2017-11-05T01:54:51.288Z,100165.07
2017-11-05T01:56:52.834Z,100165.69
2017-11-05T01:58:54.110Z,100168.02
2017-11-05T02:00:55.742Z,100153.86
2017-11-05T02:02:57.396Z,100161.73
2017-11-05T02:04:59.056Z,100160.90
2017-11-05T02:07:00.718Z,100166.20
2017-11-05T02:09:02.267Z,100153.22
2017-11-05T02:11:03.904Z,100157.68
2017-11-05T02:13:05.187Z,100162.48
2017-11-05T02:15:06.704Z,100159.21
2017-11-05T02:17:08.193Z,100166.11
2017-11-05T02:19:09.692Z,100156.25
2017-11-05T02:21:11.162Z,100155.77
2017-11-05T02:23:12.699Z,100159.46
2017-11-05T02:25:14.232Z,100163.38
2017-11-05T02:27:15.792Z,100157.28
2017-11-05T02:29:17.468Z,100168.11
2017-11-05T02:31:18.985Z,100160.44
2017-11-05T02:33:20.672Z,100153.98
2017-11-05T02:35:21.997Z,100167.42
2017-11-05T02:37:23.334Z,100157.84
2017-11-05T02:39:24.994Z,100167.42
2017-11-05T02:41:26.466Z,100176.63
2017-11-05T02:43:27.993Z,100174.91
2017-11-05T02:45:30.578Z,100178.31
2017-11-05T02:47:32.225Z,100171.06
2017-11-05T02:49:33.879Z,100172.36
2017-11-05T02:51:35.143Z,100175.52
2017-11-05T02:53:37.996Z,100176.27
2017-11-05T02:55:39.354Z,100172.83
2017-11-05T02:57:40.894Z,100175.38
2017-11-05T02:59:42.260Z,100173.75
2017-11-05T03:01:43.795Z,100178.87
2017-11-05T03:03:45.237Z,100168.59
2017-11-05T03:05:46.601Z,100169.90
2017-11-05T03:07:48.239Z,100177.30
2017-11-05T03:09:49.663Z,100169.95
2017-11-05T03:11:51.032Z,100179.06
2017-11-05T03:13:52.492Z,100168.56
2017-11-05T03:15:54.042Z,100186.97
2017-11-05T03:17:55.479Z,100172.64
2017-11-05T03:19:57.660Z,100176.13
2017-11-05T03:21:59.195Z,100161.39
2017-11-05T03:24:00.453Z,100168.92
2017-11-05T03:26:05.063Z,100143.42
2017-11-05T03:28:06.718Z,100170.59
2017-11-05T03:30:08.263Z,100166.79
2017-11-05T03:32:09.810Z,100168.51
2017-11-05T03:34:11.245Z,100158.15
2017-11-05T03:36:12.627Z,100162.61
2017-11-05T03:38:14.055Z,100156.66
2017-11-05T03:40:15.403Z,100162.50
2017-11-05T03:42:16.856Z,100152.61
2017-11-05T03:44:18.409Z,100158.15
2017-11-05T03:46:20.055Z,100156.46
2017-11-05T03:48:21.499Z,100149.59
2017-11-05T03:50:23.164Z,100161.72
2017-11-05T03:52:24.711Z,100169.53
2017-11-05T03:54:26.967Z,100168.59
2017-11-05T03:56:28.531Z,100165.72
2017-11-05T03:58:29.987Z,100162.05
2017-11-05T04:00:31.440Z,100158.66
2017-11-05T04:02:32.990Z,100161.39
2017-11-05T04:04:34.471Z,100159.61
2017-11-05T04:06:35.970Z,100173.92
2017-11-05T04:08:37.418Z,100166.33
2017-11-05T04:10:39.787Z,100159.95
2017-11-05T04:12:41.131Z,100157.19
2017-11-05T04:14:42.595Z,100163.41
2017-11-05T04:16:44.541Z,100164.58
2017-11-05T04:18:45.891Z,100161.64
2017-11-05T04:20:47.354Z,100169.45
2017-11-05T04:22:49.007Z,100166.58
2017-11-05T04:24:50.558Z,100177.73
2017-11-05T04:26:52.097Z,100168.77
2017-11-05T04:28:53.749Z,100171.92
2017-11-05T04:30:56.015Z,100187.00
2017-11-05T04:32:57.310Z,100187.88
2017-11-05T04:34:59.938Z,100183.36
2017-11-05T04:37:01.378Z,100173.50
2017-11-05T04:39:02.824Z,100183.70
2017-11-05T04:41:05.306Z,100182.34
2017-11-05T04:43:06.653Z,100180.30
2017-11-05T04:45:08.202Z,100186.95
2017-11-05T04:47:09.756Z,100178.02
2017-11-05T04:49:11.196Z,100181.24
2017-11-05T04:51:13.142Z,100190.22
2017-11-05T04:53:15.118Z,100195.44
2017-11-05T04:55:16.570Z,100206.22
2017-11-05T04:57:18.215Z,100198.16
2017-11-05T04:59:19.776Z,100195.16
2017-11-05T05:01:21.099Z,100191.00
2017-11-05T05:03:22.692Z,100204.64
2017-11-05T05:05:24.231Z,100212.56
2017-11-05T05:07:25.780Z,100200.68
2017-11-05T05:09:27.321Z,100218.22
2017-11-05T05:11:28.778Z,100205.67
2017-11-05T05:13:30.315Z,100215.81
2017-11-05T05:15:32.278Z,100226.98
2017-11-05T05:17:33.840Z,100231.87
2017-11-05T05:19:35.298Z,100223.83
2017-11-05T05:21:36.533Z,100227.73
2017-11-05T05:23:38.096Z,100227.04
2017-11-05T05:25:39.576Z,100238.84
2017-11-05T05:27:41.186Z,100233.36
2017-11-05T05:29:42.718Z,100236.16
2017-11-05T05:31:44.180Z,100236.70
2017-11-05T05:33:45.622Z,100244.20
2017-11-05T05:35:47.887Z,100245.55
2017-11-05T05:37:50.139Z,100249.12
2017-11-05T05:39:51.805Z,100259.59
2017-11-05T05:41:53.160Z,100253.97
2017-11-05T05:43:54.706Z,100255.27
2017-11-05T05:45:56.262Z,100259.79
2017-11-05T05:47:57.832Z,100249.03
2017-11-05T05:49:59.259Z,100253.87
2017-11-05T05:52:00.818Z,100257.36
2017-11-05T05:54:02.473Z,100259.09
2017-11-05T05:56:04.338Z,100268.84
2017-11-05T05:58:08.020Z,100249.59
2017-11-05T06:00:09.784Z,100274.11
2017-11-05T06:02:11.341Z,100278.84
2017-11-05T06:04:12.876Z,100286.34
2017-11-05T06:06:14.417Z,100287.25
2017-11-05T06:08:16.589Z,100283.40
2017-11-05T06:10:18.160Z,100290.75
2017-11-05T06:12:19.588Z,100298.19
2017-11-05T06:14:21.049Z,100316.46
2017-11-05T06:16:22.596Z,100307.39
2017-11-05T06:18:24.033Z,100327.06
2017-11-05T06:20:25.483Z,100330.22
2017-11-05T06:22:27.109Z,100317.30
2017-11-05T06:24:28.797Z,100319.03
2017-11-05T06:26:30.437Z,100329.58
2017-11-05T06:28:31.997Z,100346.09
2017-11-05T06:30:33.446Z,100346.03
2017-11-05T06:32:34.826Z,100353.41
2017-11-05T06:34:36.337Z,100357.89
2017-11-05T06:36:37.863Z,100349.19
2017-11-05T06:38:39.433Z,100363.98
2017-11-05T06:40:41.586Z,100370.07
2017-11-05T06:42:43.260Z,100358.80
2017-11-05T06:44:44.712Z,100369.32
2017-11-05T06:46:46.458Z,100367.19
2017-11-05T06:48:47.812Z,100378.85
2017-11-05T06:50:49.359Z,100371.49
2017-11-05T06:52:51.138Z,100382.06
2017-11-05T06:54:52.660Z,100389.30
2017-11-05T06:56:54.208Z,100384.83
2017-11-05T06:58:55.866Z,100389.02
2017-11-05T07:00:58.457Z,100389.15
2017-11-05T07:03:00.000Z,100388.93
2017-11-05T07:05:01.561Z,100389.66
2017-11-05T07:07:03.108Z,100401.88
2017-11-05T07:09:04.745Z,100407.38
2017-11-05T07:11:06.396Z,100403.57
2017-11-05T07:13:08.166Z,100414.03
2017-11-05T07:15:09.808Z,100407.14
2017-11-05T07:17:11.469Z,100424.30
2017-11-05T07:19:13.128Z,100420.84
2017-11-05T07:21:14.567Z,100427.23
2017-11-05T07:23:16.124Z,100422.12
2017-11-05T07:25:17.465Z,100432.44
2017-11-05T07:27:19.739Z,100434.02
2017-11-05T07:29:21.395Z,100431.39
2017-11-05T07:31:22.939Z,100435.06
2017-11-05T07:33:24.686Z,100441.25
2017-11-05T07:35:26.447Z,100449.03
2017-11-05T07:37:27.887Z,100447.92
2017-11-05T07:39:29.219Z,100463.73
2017-11-05T07:41:30.885Z,100444.14
2017-11-05T07:43:32.441Z,100451.95
2017-11-05T07:45:33.778Z,100462.05
2017-11-05T07:47:35.420Z,100471.55
2017-11-05T07:49:36.797Z,100475.97
2017-11-05T07:51:38.444Z,100470.01
2017-11-05T07:53:40.003Z,100464.36
2017-11-05T07:55:41.543Z,100466.94
2017-11-05T07:57:42.998Z,100463.83
2017-11-05T07:59:44.780Z,100463.16
2017-11-05T08:01:46.165Z,100455.45
2017-11-05T08:03:47.653Z,100450.02
2017-11-05T08:05:49.209Z,100464.63
2017-11-05T08:07:50.745Z,100464.25
2017-11-05T08:09:52.209Z,100483.42
2017-11-05T08:11:53.720Z,100466.16
2017-11-05T08:13:55.072Z,100477.98
2017-11-05T08:15:56.650Z,100469.07
2017-11-05T08:17:58.280Z,100465.72
2017-11-05T08:19:59.856Z,100475.77
2017-11-05T08:22:01.198Z,100466.73
2017-11-05T08:24:02.739Z,100473.38
2017-11-05T08:26:04.390Z,100488.14
2017-11-05T08:28:05.937Z,100487.93
2017-11-05T08:30:07.956Z,100487.27
2017-11-05T08:32:09.670Z,100482.80
2017-11-05T08:34:11.218Z,100479.41
2017-11-05T08:36:12.756Z,100477.53
2017-11-05T08:38:14.323Z,100470.64
2017-11-05T08:40:15.865Z,100469.91
2017-11-05T08:42:17.501Z,100477.45
2017-11-05T08:44:19.052Z,100474.83
2017-11-05T08:46:20.618Z,100484.92
2017-11-05T08:48:22.393Z,100472.81
2017-11-05T08:50:23.929Z,100474.25
2017-11-05T08:52:25.458Z,100491.80
2017-11-05T08:54:27.021Z,100492.76
2017-11-05T08:56:28.579Z,100488.16
2017-11-05T08:58:30.125Z,100494.23
2017-11-05T09:00:31.663Z,100502.59
2017-11-05T09:02:33.223Z,100511.70
2017-11-05T09:04:34.777Z,100499.59
2017-11-05T09:06:36.422Z,100507.80
2017-11-05T09:08:37.987Z,100507.19
2017-11-05T09:10:39.639Z,100505.98
2017-11-05T09:12:41.197Z,100514.95
2017-11-05T09:14:42.515Z,100513.02
2017-11-05T09:16:43.986Z,100518.19
2017-11-05T09:18:45.740Z,100529.69
2017-11-05T09:20:47.285Z,100545.73
2017-11-05T09:22:48.639Z,100546.98
2017-11-05T09:24:50.270Z,100560.13
2017-11-05T09:26:53.507Z,100550.89
2017-11-05T09:28:55.003Z,100560.63
2017-11-05T09:30:56.680Z,100556.77
2017-11-05T09:32:58.210Z,100559.17
2017-11-05T09:34:59.786Z,100571.00
2017-11-05T09:37:01.441Z,100581.45
2017-11-05T09:39:02.972Z,100577.51
2017-11-05T09:41:04.533Z,100578.05
2017-11-05T09:43:06.175Z,100569.07
2017-11-05T09:45:07.735Z,100598.70
2017-11-05T09:47:09.290Z,100587.80
2017-11-05T09:49:10.946Z,100589.47
2017-11-05T09:51:12.377Z,100596.56
2017-11-05T09:53:13.941Z,100590.05
2017-11-05T09:55:15.588Z,100595.39
2017-11-05T09:57:17.150Z,100590.11
2017-11-05T10:03:33.061Z,100598.83
2017-11-05T10:05:34.494Z,100617.43
2017-11-05T10:07:36.061Z,100604.08
2017-11-05T10:09:37.406Z,100612.43
2017-11-05T10:11:38.719Z,100601.14
2017-11-05T10:13:40.292Z,100606.52
2017-11-05T10:15:42.318Z,100607.69
2017-11-05T10:17:43.701Z,100620.88
2017-11-05T10:19:45.176Z,100613.44
2017-11-05T10:21:46.689Z,100614.24
2017-11-05T10:23:48.036Z,100627.80
2017-11-05T10:25:49.602Z,100617.85
2017-11-05T10:27:51.150Z,100628.26
2017-11-05T10:29:52.906Z,100625.31
2017-11-05T10:31:54.450Z,100617.52
2017-11-05T10:33:55.904Z,100626.66
2017-11-05T10:35:57.347Z,100626.79
2017-11-05T10:37:58.913Z,100616.80
2017-11-05T10:40:00.250Z,100620.66
2017-11-05T10:42:01.911Z,100626.20
2017-11-05T10:44:03.468Z,100628.92
2017-11-05T10:46:04.999Z,100622.93
2017-11-05T10:48:06.651Z,100629.22
2017-11-05T10:50:08.110Z,100620.62
2017-11-05T10:52:09.649Z,100627.30
2017-11-05T10:54:10.920Z,100614.48
2017-11-05T10:56:12.452Z,100634.05
2017-11-05T10:58:15.033Z,100628.38
2017-11-05T11:00:16.666Z,100644.28
2017-11-05T11:02:18.321Z,100640.37
2017-11-05T11:04:19.880Z,100642.10
2017-11-05T11:06:21.320Z,100636.06
2017-11-05T11:08:22.851Z,100641.19
2017-11-05T11:10:24.208Z,100648.70
2017-11-05T11:12:25.631Z,100646.59
2017-11-05T11:14:27.312Z,100646.52
2017-11-05T11:16:29.682Z,100638.20
2017-11-05T11:18:31.235Z,100653.09
2017-11-05T11:20:32.802Z,100662.80
2017-11-05T11:22:34.338Z,100656.75
2017-11-05T11:24:36.028Z,100649.83
2017-11-05T11:26:37.867Z,100652.81
2017-11-05T11:28:39.301Z,100652.02
2017-11-05T11:30:40.751Z,100653.27
2017-11-05T11:32:42.597Z,100651.55
2017-11-05T11:34:44.158Z,100653.73
2017-11-05T11:36:45.617Z,100648.23
2017-11-05T11:38:47.269Z,100661.38
2017-11-05T11:40:48.910Z,100657.52
2017-11-05T11:42:50.585Z,100651.72
2017-11-05T11:44:52.105Z,100649.66
2017-11-05T11:46:53.469Z,100658.02
2017-11-05T11:48:55.019Z,100659.95
2017-11-05T11:50:56.567Z,100667.46
2017-11-05T11:52:57.989Z,100672.50
2017-11-05T11:54:59.556Z,100660.08
2017-11-05T11:57:01.107Z,100679.30
2017-11-05T11:59:02.674Z,100672.08
2017-11-05T12:01:04.323Z,100668.30
2017-11-05T12:03:05.875Z,100675.81
2017-11-05T12:05:07.314Z,100676.30
2017-11-05T12:07:08.866Z,100674.70
2017-11-05T12:09:10.209Z,100674.16
2017-11-05T12:11:11.560Z,100471.54
2017-11-05T12:13:13.113Z,100666.98
2017-11-05T12:15:14.671Z,100682.61
2017-11-05T12:17:16.117Z,100676.47
2017-11-05T12:19:17.958Z,100684.41
2017-11-05T12:21:19.524Z,100680.97
2017-11-05T12:23:21.202Z,100671.48
2017-11-05T12:25:22.823Z,100681.72
2017-11-05T12:27:24.492Z,100686.33
2017-11-05T12:29:26.041Z,100684.66
2017-11-05T12:31:27.593Z,100685.16
2017-11-05T12:33:29.252Z,100685.37
2017-11-05T12:35:30.793Z,100677.86
2017-11-05T12:37:32.435Z,100679.27
2017-11-05T12:39:34.100Z,100677.14
2017-11-05T12:41:35.762Z,100676.63
2017-11-05T12:43:37.304Z,100672.77
2017-11-05T12:45:39.056Z,100681.13
2017-11-05T12:47:40.634Z,100668.88
2017-11-05T12:49:42.142Z,100678.40
2017-11-05T12:51:43.807Z,100671.94
2017-11-05T12:53:45.254Z,100678.94
2017-11-05T12:55:46.697Z,100687.13
2017-11-05T12:57:48.341Z,100682.05
2017-11-05T12:59:49.926Z,100679.98
2017-11-05T13:01:51.453Z,100685.14
2017-11-05T13:03:53.025Z,100688.55
2017-11-05T13:05:54.562Z,100696.44
2017-11-05T13:07:56.110Z,100682.13
2017-11-05T13:09:57.766Z,100683.34
2017-11-05T13:11:59.317Z,100687.63
2017-11-05T13:14:00.627Z,100689.85
2017-11-05T13:16:02.211Z,100690.23
2017-11-05T13:18:03.673Z,100697.73
2017-11-05T13:20:05.319Z,100695.94
2017-11-05T13:22:06.847Z,100703.23
2017-11-05T13:24:08.077Z,100686.91
2017-11-05T13:26:09.764Z,100700.09
2017-11-05T13:28:11.397Z,100696.42
2017-11-05T13:30:12.878Z,100711.31
2017-11-05T13:32:14.625Z,100701.66
2017-11-05T13:34:18.839Z,100721.14
2017-11-05T13:36:20.270Z,100721.55
2017-11-05T13:38:21.958Z,100726.98
2017-11-05T13:40:23.565Z,100731.72
2017-11-05T13:42:25.948Z,100731.77
2017-11-05T13:44:27.499Z,100725.63
2017-11-05T13:46:29.051Z,100736.09
2017-11-05T13:48:31.427Z,100743.01
2017-11-05T13:50:32.912Z,100750.64
2017-11-05T13:52:34.419Z,100749.34
2017-11-05T13:54:36.075Z,100758.44
2017-11-05T13:56:38.003Z,100773.64
2017-11-05T13:58:39.582Z,100783.17
2017-11-05T14:00:41.340Z,100779.47
2017-11-05T14:02:42.904Z,100792.87
2017-11-05T14:04:44.544Z,100788.89
2017-11-05T14:06:46.200Z,100816.80
2017-11-05T14:08:47.853Z,100811.42
2017-11-05T14:10:49.497Z,100811.20
2017-11-05T14:12:51.157Z,100797.64
2017-11-05T14:14:52.709Z,100805.88
2017-11-05T14:16:54.261Z,100806.30
2017-11-05T14:18:55.902Z,100810.67
2017-11-05T14:20:57.489Z,100810.55
2017-11-05T14:22:59.324Z,100803.87
2017-11-05T14:25:01.074Z,100821.80
2017-11-05T14:27:02.524Z,100819.49
2017-11-05T14:29:04.279Z,100806.00
2017-11-05T14:31:06.030Z,100816.81
2017-11-05T14:33:07.576Z,100809.83
2017-11-05T14:35:09.749Z,100821.60
2017-11-05T14:37:11.625Z,100823.81
2017-11-05T14:39:13.141Z,100825.12
2017-11-05T14:41:14.692Z,100829.83
2017-11-05T14:43:16.361Z,100835.73
2017-11-05T14:45:18.120Z,100847.70
2017-11-05T14:47:19.681Z,100845.52
2017-11-05T14:49:21.917Z,100848.03
2017-11-05T14:51:23.494Z,100848.41
2017-11-05T14:53:25.224Z,100857.27
2017-11-05T14:57:34.613Z,100845.92
2017-11-05T14:59:36.355Z,100856.84
2017-11-05T15:01:37.891Z,100864.73
2017-11-05T15:03:39.655Z,100865.14
2017-11-05T15:05:42.210Z,100871.80
2017-11-05T15:07:45.296Z,100867.44
2017-11-05T15:09:48.381Z,100883.81
2017-11-05T15:13:57.642Z,100880.19
2017-11-05T15:15:59.312Z,100880.23
2017-11-05T15:18:01.142Z,100884.83
2017-11-05T15:20:03.039Z,100897.19
2017-11-05T15:22:04.601Z,100896.19
2017-11-05T15:24:10.944Z,100901.25
2017-11-05T15:26:13.329Z,100893.72
2017-11-05T15:28:15.654Z,100911.73
2017-11-05T15:32:30.677Z,100918.85
2017-11-05T15:34:32.622Z,100922.94
2017-11-05T15:36:36.174Z,100916.86
2017-11-05T15:38:42.524Z,100925.20
2017-11-05T15:40:46.287Z,100927.38
2017-11-05T15:42:50.326Z,100931.73
2017-11-05T15:44:53.491Z,100940.61
2017-11-05T15:46:58.796Z,100929.48
2017-11-05T15:51:13.503Z,100941.84
2017-11-05T15:53:17.568Z,100951.90
2017-11-05T15:55:19.676Z,100957.22
2017-11-05T15:57:21.517Z,100955.42
2017-11-05T15:59:24.522Z,100969.72
2017-11-05T16:01:26.358Z,100970.91
2017-11-05T16:03:28.122Z,100985.33
2017-11-05T16:05:29.873Z,100975.87
2017-11-05T16:07:31.405Z,100985.91
2017-11-05T16:09:32.960Z,100987.73
2017-11-05T16:11:34.853Z,100987.93
2017-11-05T16:13:36.624Z,100982.69
2017-11-05T16:15:38.319Z,100986.89
2017-11-05T16:17:40.110Z,100988.92
2017-11-05T16:19:44.688Z,101003.08
2017-11-05T16:21:47.808Z,101004.41
2017-11-05T16:23:49.681Z,101008.62
2017-11-05T16:25:51.520Z,101012.91
2017-11-05T16:27:53.479Z,101011.36
2017-11-05T16:29:55.608Z,101020.89
2017-11-05T16:31:57.529Z,101021.81
2017-11-05T16:33:59.359Z,101017.22
2017-11-05T16:36:01.222Z,101032.36
2017-11-05T16:38:02.919Z,101028.00
2017-11-05T16:40:04.609Z,101033.01
2017-11-05T16:42:06.190Z,101033.09
2017-11-05T16:44:08.351Z,101037.30
2017-11-05T16:46:11.170Z,101030.09
2017-11-05T16:48:13.032Z,101042.30
2017-11-05T16:50:14.931Z,101048.30
2017-11-05T16:52:22.202Z,101048.38
2017-11-05T16:54:27.172Z,101049.79
2017-11-05T16:56:32.524Z,101045.89
2017-11-05T16:58:36.682Z,101055.61
2017-11-05T17:00:38.868Z,101054.57
2017-11-05T17:02:40.832Z,101056.29
2017-11-05T17:04:42.661Z,101061.30
2017-11-05T17:06:44.443Z,101059.53
2017-11-05T17:08:46.395Z,101064.05
2017-11-05T17:10:49.287Z,101063.47
2017-11-05T17:12:51.393Z,101057.30
2017-11-05T17:14:53.754Z,101069.41
2017-11-05T17:16:59.336Z,101076.67
2017-11-05T17:19:02.968Z,101065.27
2017-11-05T17:21:05.029Z,101069.60
2017-11-05T17:23:06.873Z,101061.07
2017-11-05T17:25:10.126Z,101077.78
2017-11-05T17:29:22.386Z,101094.05
2017-11-05T17:31:25.523Z,101084.59
2017-11-05T17:33:29.932Z,101084.34
2017-11-05T17:35:34.610Z,101082.55
2017-11-05T17:37:39.493Z,101103.20
2017-11-05T17:39:41.708Z,101109.91
2017-11-05T17:41:43.559Z,101089.16
2017-11-05T17:43:46.897Z,101094.78
2017-11-05T17:45:49.895Z,101105.08
2017-11-05T17:47:52.222Z,101102.23
2017-11-05T17:49:54.080Z,101101.08
2017-11-05T17:51:55.803Z,101102.91
2017-11-05T17:53:57.796Z,101115.48
2017-11-05T17:56:01.615Z,101113.98
2017-11-05T17:58:04.408Z,101113.56
2017-11-05T18:00:06.841Z,101120.17
2017-11-05T18:02:08.595Z,101115.02
2017-11-05T18:04:10.472Z,101119.42
2017-11-05T18:06:12.201Z,101126.19
2017-11-05T18:08:13.862Z,101125.60
2017-11-05T18:10:15.626Z,101127.85
2017-11-05T18:12:17.362Z,101135.27
2017-11-05T18:14:18.920Z,101134.56
2017-11-05T18:16:20.786Z,101131.90
2017-11-05T18:18:22.550Z,101125.33
2017-11-05T18:20:24.116Z,101131.06
2017-11-05T18:22:27.165Z,101124.81
2017-11-05T18:24:28.920Z,101139.48
2017-11-05T18:26:30.482Z,101127.98
2017-11-05T18:28:32.142Z,101136.93
2017-11-05T18:30:34.427Z,101145.46
2017-11-05T18:32:36.651Z,101144.83
2017-11-05T18:34:40.600Z,101140.66
2017-11-05T18:36:42.438Z,101157.44
2017-11-05T18:38:45.039Z,101136.23
2017-11-05T18:40:47.231Z,101150.41
2017-11-05T18:42:49.042Z,101149.02
2017-11-05T18:44:51.485Z,101156.34
2017-11-05T18:46:53.296Z,101161.61
2017-11-05T18:48:55.765Z,101157.30
2017-11-05T18:50:58.553Z,101160.24
2017-11-05T18:53:01.008Z,101168.25
2017-11-05T18:55:02.985Z,101168.03
2017-11-05T18:57:05.054Z,101166.52
2017-11-05T18:59:07.803Z,101169.19
2017-11-05T19:01:10.417Z,101171.89
2017-11-05T19:05:18.479Z,101184.56
2017-11-05T19:07:20.458Z,101185.23
2017-11-05T19:09:22.734Z,101183.16
2017-11-05T19:11:25.742Z,101184.03
2017-11-05T19:13:31.028Z,101188.94
2017-11-05T19:15:32.658Z,101190.44
2017-11-05T19:17:35.369Z,101198.93
2017-11-05T19:19:40.844Z,101195.78
2017-11-05T19:21:42.949Z,101188.41
2017-11-05T19:23:44.810Z,101189.60
2017-11-05T19:25:46.835Z,101195.64
2017-11-05T19:27:48.962Z,101201.33
2017-11-05T19:29:51.437Z,101192.83
2017-11-05T19:31:53.500Z,101211.58
2017-11-05T19:33:55.648Z,101207.66
2017-11-05T19:35:57.932Z,101207.80
2017-11-05T19:38:00.001Z,101209.66
2017-11-05T19:40:04.358Z,101212.19
2017-11-05T19:42:06.776Z,101211.66
2017-11-05T19:44:08.729Z,101214.95
2017-11-05T19:46:10.682Z,101226.95
2017-11-05T19:48:13.278Z,101225.50
2017-11-05T19:50:16.344Z,101219.90
2017-11-05T19:52:18.225Z,101224.02
2017-11-05T19:54:20.178Z,101218.60
2017-11-05T19:56:22.046Z,101214.97
2017-11-05T19:58:24.090Z,101229.11
2017-11-05T20:00:25.963Z,101224.03
2017-11-05T20:02:28.973Z,101229.96
2017-11-05T20:04:31.045Z,101234.45
2017-11-05T20:06:32.864Z,101231.04
2017-11-05T20:08:34.673Z,101227.08
2017-11-05T20:10:36.610Z,101229.13
2017-11-05T20:12:38.842Z,101241.14
2017-11-05T20:14:40.935Z,101242.61
2017-11-05T20:16:43.152Z,101241.67
2017-11-05T20:18:44.920Z,101243.16
2017-11-05T20:20:46.674Z,101239.28
2017-11-05T20:22:48.542Z,101252.06
2017-11-05T20:24:50.737Z,101253.16
2017-11-05T20:26:52.575Z,101247.33
2017-11-05T20:28:54.531Z,101263.32
2017-11-05T20:30:56.716Z,101260.58
2017-11-05T20:32:58.647Z,101263.76
2017-11-05T20:35:00.526Z,101268.84
2017-11-05T20:37:02.278Z,101267.94
2017-11-05T20:39:04.018Z,101270.47
2017-11-05T20:41:05.881Z,101273.87
2017-11-05T20:43:07.848Z,101272.83
2017-11-05T20:45:09.802Z,101265.27
2017-11-05T20:47:11.759Z,101261.38
2017-11-05T20:49:13.724Z,101267.31
2017-11-05T20:51:15.683Z,101277.34
2017-11-05T20:53:17.736Z,101273.55
2017-11-05T20:55:19.496Z,101279.29
2017-11-05T20:57:21.448Z,101284.52
2017-11-05T20:59:23.408Z,101293.28
2017-11-05T21:01:25.514Z,101281.08
2017-11-05T21:03:27.146Z,101281.89
2017-11-05T21:05:29.001Z,101286.79
2017-11-05T21:07:32.821Z,101296.62
2017-11-05T21:09:34.627Z,101297.47
2017-11-05T21:11:36.479Z,101291.95
2017-11-05T21:13:38.371Z,101291.72
2017-11-05T21:15:40.114Z,101304.12
2017-11-05T21:17:41.840Z,101306.32
2017-11-05T21:19:43.711Z,101314.37
2017-11-05T21:21:45.494Z,101311.41
2017-11-05T21:23:47.156Z,101314.92
2017-11-05T21:28:07.258Z,101304.86
2017-11-05T21:30:08.997Z,101310.11
2017-11-05T21:32:11.251Z,101309.59
2017-11-05T21:34:13.360Z,101319.09
2017-11-05T21:36:15.498Z,101307.55
2017-11-05T21:38:17.408Z,101315.53
2017-11-05T21:40:20.539Z,101309.81
2017-11-05T21:42:25.147Z,101317.70
2017-11-05T21:44:27.125Z,101326.68
2017-11-05T21:46:30.418Z,101317.48
2017-11-05T21:48:32.491Z,101327.31
2017-11-05T21:50:35.149Z,101325.27
2017-11-05T21:52:37.214Z,101330.78
2017-11-05T21:54:39.164Z,101331.05
2017-11-05T21:56:41.229Z,101323.39
2017-11-05T21:58:43.084Z,101334.28
2017-11-05T22:00:44.956Z,101329.73
2017-11-05T22:02:46.926Z,101331.17
2017-11-05T22:04:48.564Z,101330.84
2017-11-05T22:06:50.439Z,101339.19
2017-11-05T22:08:52.574Z,101334.59
2017-11-05T22:10:54.445Z,101339.03
2017-11-05T22:12:56.288Z,101342.37
2017-11-05T22:14:58.054Z,101344.45
2017-11-05T22:17:00.012Z,101338.67
2017-11-05T22:19:02.085Z,101350.81
2017-11-05T22:21:04.044Z,101343.56
2017-11-05T22:23:05.915Z,101349.31
2017-11-05T22:25:07.887Z,101346.58
2017-11-05T22:27:10.012Z,101348.66
2017-11-05T22:29:11.779Z,101355.89
2017-11-05T22:31:13.851Z,101348.95
2017-11-05T22:33:15.961Z,101346.89
2017-11-05T22:35:17.965Z,101349.91
2017-11-05T22:37:19.738Z,101345.28
2017-11-05T22:39:21.776Z,101353.19
2017-11-05T22:41:23.554Z,101362.11
2017-11-05T22:43:25.499Z,101361.42
2017-11-05T22:45:27.362Z,101371.52
2017-11-05T22:47:29.323Z,101365.82
2017-11-05T22:49:33.211Z,101369.11
2017-11-05T22:51:35.176Z,101368.11
2017-11-05T22:53:37.008Z,101367.33
2017-11-05T22:55:38.666Z,101373.30
2017-11-05T22:57:40.451Z,101367.42
2017-11-05T22:59:42.415Z,101370.97
2017-11-05T23:01:44.166Z,101376.64
2017-11-05T23:03:46.013Z,101376.16
2017-11-05T23:05:47.771Z,101374.62
2017-11-05T23:07:49.437Z,101375.73
2017-11-05T23:09:51.290Z,101376.41
2017-11-05T23:11:53.042Z,101377.97
2017-11-05T23:13:54.807Z,101378.05
2017-11-05T23:15:56.727Z,101387.40
2017-11-05T23:17:58.607Z,101388.00
2017-11-05T23:20:00.776Z,101382.66
2017-11-05T23:22:02.538Z,101387.03
2017-11-05T23:24:04.728Z,101391.01
2017-11-05T23:26:06.567Z,101396.11
2017-11-05T23:28:08.493Z,101398.45
2017-11-05T23:30:10.944Z,101388.75